createdAt,value
2023-05-15T00:02:14.391Z,17.49
2023-05-15T00:04:42.783Z,17.51
2023-05-15T00:07:11.339Z,17.51
2023-05-15T00:09:39.707Z,17.51
2023-05-15T00:12:09.267Z,17.51
2023-05-15T00:14:37.647Z,17.53
2023-05-15T00:17:06.489Z,17.51
2023-05-15T00:19:36.354Z,17.50
2023-05-15T00:22:04.693Z,17.52
2023-05-15T00:24:33.033Z,17.51
2023-05-15T00:27:01.888Z,17.52
2023-05-15T00:29:30.247Z,17.52
2023-05-15T00:31:58.731Z,17.54
2023-05-15T00:34:27.475Z,17.54
2023-05-15T00:36:57.250Z,17.57
2023-05-15T00:39:25.616Z,17.59
2023-05-15T00:41:56.153Z,17.62
2023-05-15T00:44:26.840Z,17.64
2023-05-15T00:46:57.225Z,17.67
2023-05-15T00:49:27.623Z,17.70
2023-05-15T00:51:58.406Z,17.70
2023-05-15T00:54:26.826Z,17.71
2023-05-15T00:56:58.180Z,17.71
2023-05-15T00:59:29.017Z,17.71
2023-05-15T01:01:57.616Z,17.72
2023-05-15T01:04:26.252Z,17.73
2023-05-15T01:06:56.845Z,17.72
2023-05-15T01:09:29.738Z,17.72
2023-05-15T01:12:00.403Z,17.74
2023-05-15T01:14:28.761Z,17.75
2023-05-15T01:16:57.108Z,17.76
2023-05-15T01:19:26.021Z,17.77
2023-05-15T01:22:36.151Z,17.75
2023-05-15T01:26:12.531Z,17.77
2023-05-15T01:28:53.098Z,17.80
2023-05-15T01:31:25.608Z,17.80
2023-05-15T01:34:00.299Z,17.80
2023-05-15T01:36:37.329Z,17.81
2023-05-15T01:39:08.207Z,17.85
2023-05-15T01:41:43.656Z,17.88
2023-05-15T01:44:20.025Z,17.91
2023-05-15T01:46:53.400Z,17.94
2023-05-15T01:49:27.831Z,17.95
2023-05-15T01:52:07.751Z,17.94
2023-05-15T01:54:37.380Z,17.93
2023-05-15T01:57:07.969Z,17.92
2023-05-15T01:59:39.814Z,17.92
2023-05-15T02:02:09.035Z,17.93
2023-05-15T02:04:39.187Z,17.91
2023-05-15T02:07:07.879Z,17.91
2023-05-15T02:09:37.789Z,17.89
2023-05-15T02:12:07.783Z,17.87
2023-05-15T02:14:38.576Z,17.85
2023-05-15T02:17:07.134Z,17.86
2023-05-15T02:19:35.822Z,17.84
2023-05-15T02:22:04.169Z,17.82
2023-05-15T02:24:32.517Z,17.78
2023-05-15T02:27:10.566Z,17.72
2023-05-15T02:29:56.062Z,17.67
2023-05-15T02:32:32.271Z,17.64
2023-05-15T02:35:15.112Z,17.62
2023-05-15T02:37:50.664Z,17.59
2023-05-15T02:40:20.049Z,17.58
2023-05-15T02:42:51.018Z,17.57
2023-05-15T02:45:21.684Z,17.56
2023-05-15T02:47:51.665Z,17.56
2023-05-15T02:50:20.638Z,17.55
2023-05-15T02:52:49.846Z,17.54
2023-05-15T02:55:18.410Z,17.53
2023-05-15T02:57:46.781Z,17.51
2023-05-15T03:00:17.695Z,17.50
2023-05-15T03:02:47.426Z,17.50
2023-05-15T03:05:16.121Z,17.48
2023-05-15T03:07:44.468Z,17.48
2023-05-15T03:10:12.837Z,17.46
2023-05-15T03:12:41.588Z,17.43
2023-05-15T03:15:10.842Z,17.38
2023-05-15T03:17:39.319Z,17.32
2023-05-15T03:20:11.606Z,17.22
2023-05-15T03:22:39.919Z,17.12
2023-05-15T03:25:11.277Z,17.03
2023-05-15T03:27:39.762Z,16.97
2023-05-15T03:30:10.086Z,16.90
2023-05-15T03:32:38.515Z,16.85
2023-05-15T03:35:09.865Z,16.81
2023-05-15T03:37:38.162Z,16.80
2023-05-15T03:40:08.777Z,16.80
2023-05-15T03:42:37.129Z,16.81
2023-05-15T03:45:06.712Z,16.85
2023-05-15T03:47:35.104Z,16.89
2023-05-15T03:50:03.599Z,16.93
2023-05-15T03:52:33.452Z,16.98
2023-05-15T03:55:02.554Z,17.04
2023-05-15T03:57:32.203Z,17.10
2023-05-15T04:00:01.313Z,17.14
2023-05-15T04:02:29.811Z,17.20
2023-05-15T04:04:58.231Z,17.26
2023-05-15T04:07:26.680Z,17.32
2023-05-15T04:09:56.434Z,17.36
2023-05-15T04:12:26.993Z,17.42
2023-05-15T04:14:55.311Z,17.47
2023-05-15T04:17:23.672Z,17.53
2023-05-15T04:19:52.054Z,17.60
2023-05-15T04:22:20.412Z,17.67
2023-05-15T04:24:48.823Z,17.74
2023-05-15T04:27:18.945Z,17.80
2023-05-15T04:29:47.317Z,17.82
2023-05-15T04:32:15.982Z,17.82
2023-05-15T04:34:44.340Z,17.79
2023-05-15T04:37:13.222Z,17.75
2023-05-15T04:39:41.618Z,17.71
2023-05-15T04:42:09.903Z,17.68
2023-05-15T04:44:39.671Z,17.68
2023-05-15T04:47:08.127Z,17.65
2023-05-15T04:49:36.559Z,17.67
2023-05-15T04:52:05.461Z,17.69
2023-05-15T04:54:33.900Z,17.73
2023-05-15T04:57:02.387Z,17.75
2023-05-15T04:59:30.948Z,17.76
2023-05-15T05:02:00.802Z,17.81
2023-05-15T05:04:29.248Z,17.85
2023-05-15T05:06:57.582Z,17.90
2023-05-15T05:09:25.931Z,17.96
2023-05-15T05:11:54.246Z,18.05
2023-05-15T05:14:22.828Z,18.15
2023-05-15T05:16:51.207Z,18.20
2023-05-15T05:19:21.064Z,18.26
2023-05-15T05:21:49.412Z,18.35
2023-05-15T05:24:17.736Z,18.44
2023-05-15T05:26:46.418Z,18.51
2023-05-15T05:29:14.807Z,18.55
2023-05-15T05:31:43.136Z,18.56
2023-05-15T05:34:11.520Z,18.58
2023-05-15T05:36:41.410Z,18.59
2023-05-15T05:39:09.753Z,18.66
2023-05-15T05:41:38.147Z,18.78
2023-05-15T05:44:06.701Z,18.88
2023-05-15T05:46:35.247Z,18.93
2023-05-15T05:49:03.784Z,19.07
2023-05-15T05:51:32.803Z,19.24
2023-05-15T05:54:02.501Z,19.38
2023-05-15T05:56:30.896Z,19.47
2023-05-15T05:59:01.799Z,19.53
2023-05-15T06:01:30.349Z,19.50
2023-05-15T06:03:58.758Z,19.48
2023-05-15T06:06:27.294Z,19.51
2023-05-15T06:08:56.582Z,19.54
2023-05-15T06:11:27.152Z,19.53
2023-05-15T06:13:55.474Z,19.53
2023-05-15T06:16:23.884Z,19.54
2023-05-15T06:18:52.292Z,19.54
2023-05-15T06:21:22.244Z,19.51
2023-05-15T06:23:50.605Z,19.43
2023-05-15T06:26:19.008Z,19.28
2023-05-15T06:28:48.806Z,19.16
2023-05-15T06:31:17.401Z,19.08
2023-05-15T06:33:45.809Z,19.02
2023-05-15T06:36:14.168Z,19.01
2023-05-15T06:38:42.575Z,19.02
2023-05-15T06:41:10.914Z,19.01
2023-05-15T06:43:39.266Z,19.05
2023-05-15T06:46:09.080Z,19.07
2023-05-15T06:48:37.989Z,19.12
2023-05-15T06:51:06.409Z,19.19
2023-05-15T06:53:34.756Z,19.28
2023-05-15T06:56:03.507Z,19.27
2023-05-15T06:58:31.896Z,19.21
2023-05-15T07:01:01.396Z,19.25
2023-05-15T07:03:31.228Z,19.38
2023-05-15T07:05:59.690Z,19.43
2023-05-15T07:08:28.087Z,19.45
2023-05-15T07:10:56.464Z,19.48
2023-05-15T07:13:25.216Z,19.57
2023-05-15T07:15:53.619Z,19.70
2023-05-15T07:18:22.037Z,19.79
2023-05-15T07:20:51.806Z,19.92
2023-05-15T07:23:20.200Z,20.09
2023-05-15T07:25:48.585Z,20.28
2023-05-15T07:28:16.942Z,20.55
2023-05-15T07:30:45.497Z,20.89
2023-05-15T07:33:13.953Z,21.11
2023-05-15T07:35:42.383Z,21.23
2023-05-15T07:38:12.685Z,21.35
2023-05-15T07:40:41.104Z,21.47
2023-05-15T07:43:10.010Z,21.65
2023-05-15T07:45:38.420Z,21.86
2023-05-15T07:48:16.913Z,22.08
2023-05-15T07:50:47.509Z,22.23
2023-05-15T07:53:17.403Z,22.38
2023-05-15T07:55:46.390Z,22.46
2023-05-15T07:58:14.777Z,22.51
2023-05-15T08:00:43.421Z,22.57
2023-05-15T08:03:12.964Z,22.66
2023-05-15T08:05:41.473Z,22.69
2023-05-15T08:08:09.907Z,22.71
2023-05-15T08:10:39.608Z,22.75
2023-05-15T08:13:08.010Z,22.81
2023-05-15T08:15:36.993Z,22.69
2023-05-15T08:18:10.976Z,22.65
2023-05-15T08:20:40.180Z,22.72
2023-05-15T08:23:08.815Z,22.92
2023-05-15T08:25:37.233Z,23.11
2023-05-15T08:28:07.177Z,23.30
2023-05-15T08:30:36.239Z,23.52
2023-05-15T08:33:04.781Z,23.64
2023-05-15T08:35:33.386Z,23.73
2023-05-15T08:38:03.282Z,23.92
2023-05-15T08:40:39.009Z,24.01
2023-05-15T08:43:16.684Z,23.92
2023-05-15T08:45:45.813Z,23.82
2023-05-15T08:48:20.403Z,23.65
2023-05-15T08:50:50.034Z,23.51
2023-05-15T08:53:19.050Z,23.33
2023-05-15T08:55:47.778Z,23.14
2023-05-15T08:58:18.294Z,23.10
2023-05-15T09:00:47.286Z,23.08
2023-05-15T09:03:19.781Z,23.00
2023-05-15T09:05:52.795Z,22.95
2023-05-15T09:08:24.112Z,22.95
2023-05-15T09:10:56.764Z,23.03
2023-05-15T09:13:26.653Z,23.16
2023-05-15T09:15:55.278Z,23.28
2023-05-15T09:18:24.114Z,23.40
2023-05-15T09:20:54.113Z,23.57
2023-05-15T09:23:27.095Z,23.73
2023-05-15T09:25:57.150Z,23.87
2023-05-15T09:28:33.465Z,23.94
2023-05-15T09:31:04.689Z,23.92
2023-05-15T09:33:35.561Z,23.87
2023-05-15T09:36:05.337Z,23.79
2023-05-15T09:38:35.496Z,23.83
2023-05-15T09:41:06.277Z,23.91
2023-05-15T09:43:42.114Z,24.00
2023-05-15T09:46:13.051Z,24.11
2023-05-15T09:48:41.712Z,24.12
2023-05-15T09:51:17.982Z,24.10
2023-05-15T09:53:50.948Z,24.10
2023-05-15T09:56:19.923Z,24.23
2023-05-15T09:58:57.460Z,24.34
2023-05-15T10:01:27.597Z,24.38
2023-05-15T10:04:00.734Z,24.29
2023-05-15T10:06:35.558Z,24.29
2023-05-15T10:09:05.019Z,24.39
2023-05-15T10:11:36.548Z,24.40
2023-05-15T10:14:08.194Z,24.26
2023-05-15T10:16:38.587Z,24.13
2023-05-15T10:19:10.070Z,24.06
2023-05-15T10:21:40.300Z,24.01
2023-05-15T10:24:10.013Z,24.07
2023-05-15T10:26:40.336Z,24.14
2023-05-15T10:29:13.262Z,24.24
2023-05-15T10:31:42.646Z,24.43
2023-05-15T10:34:12.371Z,24.67
2023-05-15T10:36:40.958Z,24.85
2023-05-15T10:39:09.793Z,24.85
2023-05-15T10:41:40.552Z,24.71
2023-05-15T10:44:11.129Z,24.63
2023-05-15T10:46:39.526Z,24.43
2023-05-15T10:49:07.995Z,24.34
2023-05-15T10:51:40.452Z,24.34
2023-05-15T10:54:10.889Z,24.42
2023-05-15T10:56:40.658Z,24.53
2023-05-15T10:59:12.604Z,24.69
2023-05-15T11:01:42.400Z,25.07
2023-05-15T11:04:13.702Z,25.55
2023-05-15T11:06:43.913Z,26.27
2023-05-15T11:09:35.823Z,27.07
2023-05-15T11:12:06.174Z,27.59
2023-05-15T11:14:38.847Z,27.78
2023-05-15T11:17:09.586Z,28.08
2023-05-15T11:19:57.943Z,28.44
2023-05-15T11:22:36.101Z,28.81
2023-05-15T11:25:08.898Z,29.16
2023-05-15T11:27:41.628Z,29.45
2023-05-15T11:30:18.266Z,29.52
2023-05-15T11:32:58.439Z,29.45
2023-05-15T11:35:30.649Z,29.37
2023-05-15T11:38:00.930Z,29.50
2023-05-15T11:40:31.324Z,29.73
2023-05-15T11:43:08.987Z,30.14
2023-05-15T11:45:41.439Z,30.69
2023-05-15T11:48:16.056Z,31.07
2023-05-15T11:50:46.836Z,31.15
2023-05-15T11:53:16.603Z,31.28
2023-05-15T11:55:46.288Z,31.29
2023-05-15T11:58:16.981Z,31.16
2023-05-15T12:00:49.469Z,30.80
2023-05-15T12:03:20.472Z,30.43
2023-05-15T12:05:58.164Z,29.92
2023-05-15T12:08:33.266Z,29.42
2023-05-15T12:11:02.999Z,29.17
2023-05-15T12:13:32.879Z,28.95
2023-05-15T12:16:04.603Z,28.66
2023-05-15T12:18:33.412Z,28.70
2023-05-15T12:21:02.201Z,29.15
2023-05-15T12:23:30.735Z,30.07
2023-05-15T12:26:02.784Z,31.20
2023-05-15T12:28:34.293Z,32.24
2023-05-15T12:31:05.254Z,33.40
2023-05-15T12:33:34.021Z,34.27
2023-05-15T12:36:02.460Z,35.04
2023-05-15T12:38:31.116Z,35.36
2023-05-15T12:40:59.720Z,35.26
2023-05-15T12:43:28.566Z,34.82
2023-05-15T12:45:57.920Z,34.29
2023-05-15T12:48:32.874Z,33.70
2023-05-15T12:51:07.979Z,32.85
2023-05-15T12:53:39.720Z,32.50
2023-05-15T12:56:09.317Z,32.02
2023-05-15T12:58:38.530Z,31.33
2023-05-15T13:01:07.136Z,30.95
2023-05-15T13:03:37.702Z,30.97
2023-05-15T13:06:08.191Z,30.90
2023-05-15T13:08:42.685Z,31.06
2023-05-15T13:11:14.702Z,31.10
2023-05-15T13:13:48.288Z,31.37
2023-05-15T13:16:22.280Z,31.35
2023-05-15T13:18:52.448Z,31.33
2023-05-15T13:21:21.158Z,31.64
2023-05-15T13:23:49.726Z,32.37
2023-05-15T13:26:18.131Z,33.00
2023-05-15T13:28:46.458Z,33.40
2023-05-15T13:31:15.073Z,33.76
2023-05-15T13:33:43.668Z,34.39
2023-05-15T13:36:13.832Z,35.28
2023-05-15T13:38:42.301Z,36.15
2023-05-15T13:41:11.259Z,36.57
2023-05-15T13:43:39.628Z,36.21
2023-05-15T13:46:08.167Z,35.57
2023-05-15T13:48:36.645Z,34.95
2023-05-15T13:51:05.311Z,34.43
2023-05-15T13:53:35.183Z,33.96
2023-05-15T13:56:03.693Z,33.81
2023-05-15T13:58:32.171Z,33.71
2023-05-15T14:01:00.591Z,33.60
2023-05-15T14:03:29.029Z,33.84
2023-05-15T14:05:57.452Z,33.87
2023-05-15T14:08:25.837Z,34.15
2023-05-15T14:10:55.668Z,34.50
2023-05-15T14:13:24.505Z,34.72
2023-05-15T14:15:53.173Z,34.99
2023-05-15T14:18:21.532Z,35.11
2023-05-15T14:20:49.994Z,35.06
2023-05-15T14:23:18.349Z,35.10
2023-05-15T14:25:46.752Z,35.61
2023-05-15T14:28:16.532Z,36.16
2023-05-15T14:30:44.946Z,36.74
2023-05-15T14:33:13.368Z,36.76
2023-05-15T14:35:41.858Z,36.75
2023-05-15T14:38:10.183Z,36.80
2023-05-15T14:40:38.530Z,36.75
2023-05-15T14:43:07.431Z,36.32
2023-05-15T14:45:37.355Z,35.86
2023-05-15T14:48:06.254Z,35.56
2023-05-15T14:50:34.807Z,35.32
2023-05-15T14:53:03.431Z,35.11
2023-05-15T14:55:32.434Z,34.72
2023-05-15T14:58:01.222Z,33.76
2023-05-15T15:00:29.680Z,32.83
2023-05-15T15:03:01.819Z,32.10
2023-05-15T15:05:30.391Z,31.59
2023-05-15T15:08:05.029Z,31.64
2023-05-15T15:10:34.374Z,32.08
2023-05-15T15:13:02.992Z,32.51
2023-05-15T15:15:32.976Z,32.92
2023-05-15T15:18:02.971Z,33.38
2023-05-15T15:20:31.643Z,34.01
2023-05-15T15:23:00.083Z,34.68
2023-05-15T15:25:30.742Z,35.35
2023-05-15T15:28:00.496Z,35.44
2023-05-15T15:30:29.072Z,34.90
2023-05-15T15:32:57.961Z,34.02
2023-05-15T15:35:27.958Z,32.98
2023-05-15T15:37:56.544Z,32.01
2023-05-15T15:40:25.628Z,31.04
2023-05-15T15:42:54.391Z,30.23
2023-05-15T15:45:22.937Z,29.59
2023-05-15T15:47:51.434Z,29.05
2023-05-15T15:50:19.910Z,28.62
2023-05-15T15:52:49.695Z,28.26
2023-05-15T15:55:18.126Z,27.99
2023-05-15T15:57:46.605Z,27.67
2023-05-15T16:00:16.438Z,27.25
2023-05-15T16:02:45.090Z,26.86
2023-05-15T16:05:13.769Z,26.51
2023-05-15T16:07:42.110Z,26.27
2023-05-15T16:10:13.527Z,26.12
2023-05-15T16:12:42.825Z,26.01
2023-05-15T16:15:22.515Z,25.91
2023-05-15T16:17:53.745Z,25.70
2023-05-15T16:20:23.542Z,25.53
2023-05-15T16:22:52.027Z,25.35
2023-05-15T16:25:21.935Z,25.10
2023-05-15T16:27:50.315Z,24.94
2023-05-15T16:30:18.744Z,24.78
2023-05-15T16:32:48.597Z,24.65
2023-05-15T16:35:17.315Z,24.55
2023-05-15T16:37:45.695Z,24.47
2023-05-15T16:40:14.649Z,24.38
2023-05-15T16:42:44.453Z,24.30
2023-05-15T16:45:13.099Z,24.21
2023-05-15T16:47:41.610Z,24.21
2023-05-15T16:50:10.917Z,24.17
2023-05-15T16:52:45.363Z,24.12
2023-05-15T16:55:16.361Z,24.11
2023-05-15T16:57:47.144Z,24.12
2023-05-15T17:00:17.144Z,24.13
2023-05-15T17:02:45.732Z,24.16
2023-05-15T17:05:15.152Z,24.20
2023-05-15T17:07:45.159Z,24.21
2023-05-15T17:10:14.426Z,24.24
2023-05-15T17:12:43.010Z,24.26
2023-05-15T17:15:14.233Z,24.24
2023-05-15T17:17:42.699Z,24.19
2023-05-15T17:20:12.926Z,24.11
2023-05-15T17:22:41.518Z,24.05
2023-05-15T17:25:11.297Z,23.97
2023-05-15T17:27:41.588Z,23.90
2023-05-15T17:30:13.025Z,23.85
2023-05-15T17:32:41.644Z,23.78
2023-05-15T17:35:11.504Z,23.73
2023-05-15T17:37:40.095Z,23.68
2023-05-15T17:40:10.030Z,23.60
2023-05-15T17:42:38.495Z,23.55
2023-05-15T17:45:08.767Z,23.48
2023-05-15T17:47:38.667Z,23.42
2023-05-15T17:50:09.517Z,23.34
2023-05-15T17:52:38.178Z,23.25
2023-05-15T17:55:08.384Z,23.13
2023-05-15T17:57:36.840Z,23.01
2023-05-15T18:00:07.166Z,22.89
2023-05-15T18:02:36.998Z,22.79
2023-05-15T18:05:06.233Z,22.68
2023-05-15T18:07:34.651Z,22.59
2023-05-15T18:10:03.281Z,22.50
2023-05-15T18:12:31.671Z,22.41
2023-05-15T18:15:00.124Z,22.32
2023-05-15T18:17:28.630Z,22.25
2023-05-15T18:19:58.448Z,22.16
2023-05-15T18:22:26.894Z,22.08
2023-05-15T18:24:55.357Z,22.01
2023-05-15T18:27:23.816Z,21.94
2023-05-15T18:29:52.977Z,21.86
2023-05-15T18:32:21.595Z,21.82
2023-05-15T18:34:50.261Z,21.76
2023-05-15T18:37:20.293Z,21.70
2023-05-15T18:39:48.988Z,21.65
2023-05-15T18:42:17.405Z,21.58
2023-05-15T18:44:46.309Z,21.53
2023-05-15T18:47:14.865Z,21.48
2023-05-15T18:49:43.272Z,21.42
2023-05-15T18:52:12.084Z,21.37
2023-05-15T18:54:42.475Z,21.32
2023-05-15T18:57:10.866Z,21.26
2023-05-15T18:59:39.270Z,21.21
2023-05-15T19:02:09.397Z,21.15
2023-05-15T19:04:37.914Z,21.12
2023-05-15T19:07:06.885Z,21.08
2023-05-15T19:09:36.015Z,21.02
2023-05-15T19:12:06.493Z,20.96
2023-05-15T19:14:34.916Z,20.92
2023-05-15T19:17:03.389Z,20.88
2023-05-15T19:19:31.948Z,20.84
2023-05-15T19:22:00.460Z,20.81
2023-05-15T19:24:29.968Z,20.76
2023-05-15T19:26:59.299Z,20.72
2023-05-15T19:29:29.162Z,20.67
2023-05-15T19:31:57.659Z,20.64
2023-05-15T19:34:26.258Z,20.60
2023-05-15T19:36:54.973Z,20.56
2023-05-15T19:39:23.366Z,20.52
2023-05-15T19:41:52.374Z,20.49
2023-05-15T19:44:20.915Z,20.44
2023-05-15T19:46:51.657Z,20.42
2023-05-15T19:49:21.635Z,20.40
2023-05-15T19:51:50.051Z,20.37
2023-05-15T19:54:18.538Z,20.33
2023-05-15T19:56:46.922Z,20.29
2023-05-15T19:59:15.702Z,20.26
2023-05-15T20:01:44.291Z,20.24
2023-05-15T20:04:14.333Z,20.20
2023-05-15T20:06:43.278Z,20.18
2023-05-15T20:09:11.772Z,20.14
2023-05-15T20:11:40.147Z,20.11
2023-05-15T20:14:08.534Z,20.08
2023-05-15T20:16:37.188Z,20.04
2023-05-15T20:19:06.112Z,20.01
2023-05-15T20:21:36.005Z,19.97
2023-05-15T20:24:04.664Z,19.95
2023-05-15T20:26:33.046Z,19.92
2023-05-15T20:29:01.487Z,19.89
2023-05-15T20:31:30.007Z,19.85
2023-05-15T20:33:59.231Z,19.83
2023-05-15T20:36:28.314Z,19.80
2023-05-15T20:38:58.993Z,19.77
2023-05-15T20:41:27.341Z,19.73
2023-05-15T20:43:55.715Z,19.71
2023-05-15T20:46:28.178Z,19.70
2023-05-15T20:48:57.997Z,19.67
2023-05-15T20:51:26.565Z,19.64
2023-05-15T20:53:54.977Z,19.61
2023-05-15T20:56:26.407Z,19.58
2023-05-15T20:58:57.449Z,19.56
2023-05-15T21:01:27.510Z,19.56
2023-05-15T21:03:56.064Z,19.55
2023-05-15T21:06:24.804Z,19.53
2023-05-15T21:08:53.088Z,19.51
2023-05-15T21:11:21.784Z,19.49
2023-05-15T21:13:51.623Z,19.49
2023-05-15T21:16:20.053Z,19.46
2023-05-15T21:18:49.123Z,19.46
2023-05-15T21:21:17.685Z,19.43
2023-05-15T21:23:46.130Z,19.41
2023-05-15T21:26:14.534Z,19.40
2023-05-15T21:28:43.220Z,19.38
2023-05-15T21:31:13.010Z,19.36
2023-05-15T21:33:41.474Z,19.33
2023-05-15T21:36:10.910Z,19.32
2023-05-15T21:38:39.301Z,19.31
2023-05-15T21:41:07.638Z,19.30
2023-05-15T21:43:36.058Z,19.27
2023-05-15T21:46:04.592Z,19.26
2023-05-15T21:48:34.451Z,19.25
2023-05-15T21:51:02.877Z,19.23
2023-05-15T21:53:31.368Z,19.22
2023-05-15T21:56:01.377Z,19.19
2023-05-15T21:58:30.427Z,19.19
2023-05-15T22:00:59.267Z,19.17
2023-05-15T22:03:28.195Z,19.17
2023-05-15T22:05:58.841Z,19.16
2023-05-15T22:08:27.280Z,19.18
2023-05-15T22:10:55.775Z,19.19
2023-05-15T22:13:24.138Z,19.21
2023-05-15T22:15:52.609Z,19.23
2023-05-15T22:18:21.294Z,19.24
2023-05-15T22:20:50.501Z,19.26
2023-05-15T22:23:20.343Z,19.27
2023-05-15T22:25:49.324Z,19.29
2023-05-15T22:28:18.021Z,19.31
2023-05-15T22:30:46.503Z,19.34
2023-05-15T22:33:15.125Z,19.36
2023-05-15T22:35:44.268Z,19.40
2023-05-15T22:38:12.677Z,19.43
2023-05-15T22:40:42.516Z,19.45
2023-05-15T22:43:11.109Z,19.47
2023-05-15T22:45:39.546Z,19.49
2023-05-15T22:48:08.532Z,19.51
2023-05-15T22:50:37.488Z,19.51
2023-05-15T22:53:05.887Z,19.54
2023-05-15T22:55:34.255Z,19.55
2023-05-15T22:58:04.155Z,19.56
2023-05-15T23:00:32.570Z,19.58
2023-05-15T23:03:01.164Z,19.60
2023-05-15T23:05:29.533Z,19.61
2023-05-15T23:07:57.918Z,19.64
2023-05-15T23:10:26.432Z,19.64
2023-05-15T23:12:55.125Z,19.64
2023-05-15T23:15:24.972Z,19.63
2023-05-15T23:17:53.445Z,19.61
2023-05-15T23:20:21.939Z,19.60
2023-05-15T23:22:50.670Z,19.58
2023-05-15T23:25:19.458Z,19.55
2023-05-15T23:27:47.789Z,19.52
2023-05-15T23:30:17.187Z,19.48
2023-05-15T23:32:46.987Z,19.46
2023-05-15T23:35:15.522Z,19.44
2023-05-15T23:37:43.892Z,19.42
2023-05-15T23:40:14.575Z,19.39
2023-05-15T23:42:43.011Z,19.38
2023-05-15T23:45:13.790Z,19.36
2023-05-15T23:47:42.346Z,19.35
2023-05-15T23:50:12.614Z,19.34
2023-05-15T23:52:41.006Z,19.33
2023-05-15T23:55:10.519Z,19.33
2023-05-15T23:57:38.834Z,19.33
